Ada, South Dakota
Current Conditions -  °F | °C
As of 1:53 PM on Wednesday 26 Nov 2014 (Local Time) from KHEI Reporting Station
Overcast Overcast  
Wind Chill: -12°   Ceiling: 4700
Heat Index: -6°   Visibility: 10mi
Dew Point: -10°   Wind: 9mph
Humidity: 74%   Direction: 20°NNE
Pressure: 30.29"   Gusts: NA
Location:  45.5161°N, 102.519°W
Report Text: KHEI 262053Z AUTO 02008KT 10SM OVC047 M06/M10 A3029 RMK AO2 SNE08 SLP299 P0000 60000 T10611100 53007
Loading
Personal Weather Stations






























Interactive Weather Map New forecast layout! Learn more

10-Day Weather Forecast

Advertisements
Track Severe Weather on mobile